Time;durP1;ratioP1;P1;durP2;ratioP2;P2;SDS_P1;SDS_P2;PMS_P1;PMS_P2;Temp;Humidity;BMP_temperature;BMP_pressure;BME280_temperature;BME280_humidity;BME280_pressure;Samples;Min_cycle;Max_cycle;Signal;HPM_P1;HPM_P2
2021/08/18 00:00:34;;;;;;;30.38;18.48;;;15.40;99.90;;;;;;5011202;28;20032;-86
2021/08/18 00:03:02;;;;;;;31.85;18.13;;;15.40;99.90;;;;;;5010862;28;20418;-86
2021/08/18 00:05:27;;;;;;;33.42;18.20;;;15.40;99.90;;;;;;5010625;28;20114;-84
2021/08/18 00:07:53;;;;;;;29.88;17.42;;;15.40;99.90;;;;;;4994837;28;20137;-86
2021/08/18 00:10:19;;;;;;;28.38;17.13;;;15.40;99.90;;;;;;5004907;28;20457;-85
2021/08/18 00:12:44;;;;;;;32.05;17.50;;;15.40;99.90;;;;;;5004790;28;20099;-86
2021/08/18 00:15:14;;;;;;;30.52;16.67;;;15.40;99.90;;;;;;5011639;28;20069;-86
2021/08/18 00:17:39;;;;;;;29.45;16.75;;;15.40;99.90;;;;;;5006379;28;20027;-86
2021/08/18 00:20:05;;;;;;;30.73;16.80;;;15.40;99.90;;;;;;4999246;28;20383;-87
2021/08/18 00:22:31;;;;;;;31.05;15.90;;;15.40;99.90;;;;;;5006028;28;20108;-86
2021/08/18 00:24:56;;;;;;;29.30;15.57;;;15.40;99.90;;;;;;5009326;28;20474;-87
2021/08/18 00:27:22;;;;;;;32.92;16.35;;;15.40;99.90;;;;;;5006740;28;20026;-86
2021/08/18 00:29:47;;;;;;;30.67;15.23;;;15.40;99.90;;;;;;5009865;28;20466;-85
2021/08/18 00:32:13;;;;;;;28.17;14.65;;;15.40;99.90;;;;;;5013426;28;20092;-86
2021/08/18 00:34:38;;;;;;;24.08;14.02;;;15.40;99.90;;;;;;5016186;28;20359;-86
2021/08/18 00:37:04;;;;;;;27.17;14.85;;;15.40;99.90;;;;;;5007213;28;20041;-86
2021/08/18 00:39:30;;;;;;;25.23;13.63;;;15.40;99.90;;;;;;5010562;28;20045;-86
2021/08/18 00:41:56;;;;;;;26.27;13.63;;;15.40;99.90;;;;;;5016291;28;20038;-86
2021/08/18 00:44:21;;;;;;;27.60;15.00;;;15.40;99.90;;;;;;5013487;28;20037;-86
2021/08/18 00:46:49;;;;;;;27.33;14.82;;;15.40;99.90;;;;;;5009198;28;20080;-86
2021/08/18 00:49:17;;;;;;;30.85;14.55;;;15.40;99.90;;;;;;5014584;28;20022;-83
2021/08/18 00:51:42;;;;;;;27.05;14.35;;;15.40;99.90;;;;;;5006518;28;20030;-86
2021/08/18 00:54:08;;;;;;;28.80;14.65;;;15.40;99.90;;;;;;5012851;28;20038;-85
2021/08/18 00:56:33;;;;;;;29.05;14.48;;;15.40;99.90;;;;;;5008298;28;20138;-85
2021/08/18 00:58:59;;;;;;;29.15;14.68;;;15.50;99.90;;;;;;5012901;28;20046;-85
2021/08/18 01:01:24;;;;;;;26.17;14.23;;;15.40;99.90;;;;;;5006679;28;20050;-85
2021/08/18 01:03:50;;;;;;;21.63;13.20;;;15.40;99.90;;;;;;5011568;28;20490;-85
2021/08/18 01:06:15;;;;;;;23.33;13.20;;;15.50;99.90;;;;;;4997635;28;20042;-85
2021/08/18 01:08:41;;;;;;;20.50;12.82;;;15.40;99.90;;;;;;5008089;28;20798;-85
2021/08/18 01:11:06;;;;;;;29.75;14.73;;;15.40;99.90;;;;;;5005254;28;20030;-85
2021/08/18 01:13:32;;;;;;;25.98;14.05;;;15.40;99.90;;;;;;5013242;28;20030;-85
2021/08/18 01:15:58;;;;;;;29.15;14.73;;;15.40;99.90;;;;;;5012207;28;20035;-85
2021/08/18 01:18:24;;;;;;;26.23;14.93;;;15.40;99.90;;;;;;5014170;28;20042;-85
2021/08/18 01:20:49;;;;;;;22.90;13.15;;;15.40;99.90;;;;;;5010940;28;20119;-85
2021/08/18 01:23:15;;;;;;;21.08;12.82;;;15.40;99.90;;;;;;5015477;28;20117;-85
2021/08/18 01:25:43;;;;;;;24.60;13.77;;;15.40;99.90;;;;;;5014849;28;20030;-85
2021/08/18 01:28:10;;;;;;;19.08;12.25;;;15.40;99.90;;;;;;5012259;28;20034;-85
2021/08/18 01:30:36;;;;;;;21.60;13.15;;;15.50;99.90;;;;;;5005987;28;20049;-85
2021/08/18 01:33:11;;;;;;;24.70;13.93;;;15.40;99.90;;;;;;5011501;28;20026;-85
2021/08/18 01:35:40;;;;;;;21.58;12.70;;;15.50;99.90;;;;;;5012372;28;20046;-85
2021/08/18 01:38:07;;;;;;;22.58;13.35;;;15.40;99.90;;;;;;5013384;28;20407;-85
2021/08/18 01:40:34;;;;;;;25.10;12.82;;;15.40;99.90;;;;;;5001548;28;20471;-85
2021/08/18 01:43:00;;;;;;;23.92;12.93;;;15.40;99.90;;;;;;5012038;28;20030;-85
2021/08/18 01:45:30;;;;;;;19.05;11.05;;;15.40;99.90;;;;;;5010673;28;20486;-85
2021/08/18 01:47:56;;;;;;;20.83;11.32;;;15.50;99.90;;;;;;4999091;28;20025;-85
2021/08/18 01:50:23;;;;;;;21.75;11.75;;;15.50;99.90;;;;;;5009693;28;20018;-85
2021/08/18 01:52:55;;;;;;;19.40;9.98;;;15.50;99.90;;;;;;5008787;28;20489;-85
2021/08/18 01:55:23;;;;;;;21.48;11.23;;;15.50;99.90;;;;;;5012851;28;20022;-85
2021/08/18 01:57:48;;;;;;;19.85;11.02;;;15.50;99.90;;;;;;5014561;28;20080;-85
2021/08/18 02:00:15;;;;;;;16.50;10.18;;;15.50;99.90;;;;;;5012232;28;20033;-85
2021/08/18 02:02:41;;;;;;;21.05;10.95;;;15.50;99.90;;;;;;5014640;28;20029;-84
2021/08/18 02:05:08;;;;;;;13.18;7.60;;;15.50;99.90;;;;;;5012528;28;20029;-84
2021/08/18 02:07:34;;;;;;;12.50;7.53;;;15.50;99.90;;;;;;4997764;28;20096;-85
2021/08/18 02:10:00;;;;;;;10.30;6.10;;;15.50;99.90;;;;;;5011251;28;20030;-84
2021/08/18 02:12:25;;;;;;;11.73;7.40;;;15.40;99.90;;;;;;5008214;28;20022;-84
2021/08/18 02:14:51;;;;;;;10.95;7.03;;;15.40;99.90;;;;;;5013307;28;20038;-84
2021/08/18 02:17:16;;;;;;;11.55;6.63;;;15.40;99.90;;;;;;5011218;28;20018;-84
2021/08/18 02:19:42;;;;;;;15.48;7.72;;;15.40;99.90;;;;;;5001939;28;20037;-84
2021/08/18 02:22:08;;;;;;;14.73;7.95;;;15.40;99.90;;;;;;5008735;28;20469;-84
2021/08/18 02:24:33;;;;;;;11.27;7.45;;;15.40;99.90;;;;;;5013600;28;20565;-84
2021/08/18 02:26:59;;;;;;;13.15;7.80;;;15.40;99.90;;;;;;5009651;28;20080;-84
2021/08/18 02:29:24;;;;;;;10.98;6.85;;;15.40;99.90;;;;;;5013607;28;20033;-84
2021/08/18 02:31:50;;;;;;;8.30;5.38;;;15.30;99.90;;;;;;5016651;28;20054;-84
2021/08/18 02:34:15;;;;;;;10.13;5.30;;;15.30;99.90;;;;;;5010978;28;20483;-84
2021/08/18 02:36:41;;;;;;;6.20;4.28;;;15.30;99.90;;;;;;5009328;28;20382;-83
2021/08/18 02:39:07;;;;;;;8.40;4.95;;;15.20;99.90;;;;;;5011171;28;20045;-84
2021/08/18 02:41:33;;;;;;;9.30;4.15;;;15.20;99.90;;;;;;5007482;28;20109;-84
2021/08/18 02:44:00;;;;;;;13.77;5.63;;;15.20;99.90;;;;;;5012790;28;20030;-85
2021/08/18 02:46:26;;;;;;;6.97;3.72;;;15.10;99.90;;;;;;5009979;28;20080;-84
2021/08/18 02:48:51;;;;;;;6.85;3.63;;;15.10;99.90;;;;;;5006705;28;20029;-84
2021/08/18 02:51:17;;;;;;;6.35;3.40;;;15.00;99.90;;;;;;5013552;28;20026;-84
2021/08/18 02:53:43;;;;;;;6.93;4.45;;;15.00;99.90;;;;;;5006056;28;20041;-84
2021/08/18 02:56:08;;;;;;;6.43;3.65;;;15.00;99.90;;;;;;5008475;28;20022;-84
2021/08/18 02:58:34;;;;;;;7.90;3.92;;;15.00;99.90;;;;;;5000513;28;20034;-85
2021/08/18 03:01:00;;;;;;;5.95;3.42;;;15.00;99.90;;;;;;5011009;28;20030;-85
2021/08/18 03:03:25;;;;;;;4.50;2.90;;;15.00;99.90;;;;;;4996674;28;20030;-85
2021/08/18 03:05:51;;;;;;;8.50;3.92;;;15.00;99.90;;;;;;5005818;28;20470;-84
2021/08/18 03:08:17;;;;;;;5.28;2.97;;;15.00;99.90;;;;;;5006476;28;20510;-84
2021/08/18 03:10:42;;;;;;;5.13;2.95;;;15.00;99.90;;;;;;5008221;28;20025;-84
2021/08/18 03:13:08;;;;;;;7.50;2.97;;;15.00;99.90;;;;;;5008275;28;20521;-84
2021/08/18 03:15:40;;;;;;;6.78;3.28;;;14.90;99.90;;;;;;5065103;28;20898;-66
2021/08/18 03:18:05;;;;;;;8.05;3.47;;;14.90;99.90;;;;;;5041525;28;20072;-66
2021/08/18 03:20:31;;;;;;;5.57;3.03;;;14.90;99.90;;;;;;5047308;28;20086;-65
2021/08/18 03:22:56;;;;;;;4.32;2.38;;;14.90;99.90;;;;;;5041757;28;20030;-66
2021/08/18 03:25:22;;;;;;;4.13;2.05;;;14.90;99.90;;;;;;5026594;28;20087;-66
2021/08/18 03:27:47;;;;;;;4.32;2.40;;;14.90;99.90;;;;;;5025635;28;20038;-66
2021/08/18 03:30:13;;;;;;;5.05;2.42;;;14.90;99.90;;;;;;5017187;28;20096;-66
2021/08/18 03:32:39;;;;;;;5.07;3.00;;;14.90;99.90;;;;;;5021155;28;20026;-67
2021/08/18 03:35:05;;;;;;;5.55;2.83;;;14.90;99.90;;;;;;5027368;28;20022;-66
2021/08/18 03:37:31;;;;;;;7.22;4.10;;;14.90;99.90;;;;;;5018834;28;20076;-66
2021/08/18 03:39:56;;;;;;;9.25;3.25;;;14.90;99.90;;;;;;5022520;28;20026;-66
2021/08/18 03:42:22;;;;;;;6.38;3.33;;;15.00;99.90;;;;;;5027739;28;20083;-66
2021/08/18 03:44:48;;;;;;;6.72;4.03;;;15.00;99.90;;;;;;5027699;28;20030;-66
2021/08/18 03:47:13;;;;;;;8.82;3.65;;;15.00;99.90;;;;;;5023966;28;20037;-66
2021/08/18 03:49:39;;;;;;;8.82;4.07;;;15.00;99.90;;;;;;5023049;28;20029;-65
2021/08/18 03:52:06;;;;;;;10.90;6.57;;;15.00;99.90;;;;;;5027266;28;20030;-65
2021/08/18 03:54:32;;;;;;;10.77;6.95;;;15.00;99.90;;;;;;5026977;28;20041;-67
2021/08/18 03:56:57;;;;;;;10.75;6.15;;;15.10;99.90;;;;;;5024920;28;20022;-66
2021/08/18 03:59:23;;;;;;;8.00;5.30;;;15.00;99.90;;;;;;5025162;28;20022;-66
2021/08/18 04:01:49;;;;;;;9.30;6.18;;;15.10;99.90;;;;;;5021068;28;20041;-65
2021/08/18 04:04:15;;;;;;;8.00;5.90;;;15.00;99.90;;;;;;5017561;28;20025;-66
2021/08/18 04:06:40;;;;;;;11.23;5.00;;;15.00;99.90;;;;;;5027229;28;20026;-65
2021/08/18 04:09:06;;;;;;;6.78;4.85;;;15.00;99.90;;;;;;5023882;28;20033;-66
2021/08/18 04:11:31;;;;;;;6.40;4.15;;;15.00;99.90;;;;;;5026652;28;20044;-66
2021/08/18 04:13:57;;;;;;;7.32;3.95;;;15.00;99.90;;;;;;5017748;28;20049;-65
2021/08/18 04:16:22;;;;;;;6.97;4.10;;;15.00;99.90;;;;;;5024951;28;20030;-66
2021/08/18 04:18:49;;;;;;;9.32;4.18;;;14.90;99.90;;;;;;5019260;28;20022;-66
2021/08/18 04:21:14;;;;;;;5.93;3.47;;;14.90;99.90;;;;;;5026362;28;20456;-65
2021/08/18 04:23:40;;;;;;;7.78;3.13;;;14.90;99.90;;;;;;5023878;28;20033;-65
2021/08/18 04:26:06;;;;;;;6.55;2.47;;;14.90;99.90;;;;;;5018261;28;20040;-66
2021/08/18 04:28:31;;;;;;;7.05;3.15;;;14.90;99.90;;;;;;5003376;28;20057;-66
2021/08/18 04:30:57;;;;;;;6.18;2.80;;;14.90;99.90;;;;;;5002887;28;20026;-66
2021/08/18 04:33:22;;;;;;;7.25;4.10;;;14.80;99.90;;;;;;5007358;28;20085;-66
2021/08/18 04:35:48;;;;;;;6.45;3.28;;;14.80;99.90;;;;;;5014666;28;20065;-65
2021/08/18 04:38:13;;;;;;;5.90;3.85;;;14.80;99.90;;;;;;5012763;28;20018;-66
2021/08/18 04:40:39;;;;;;;8.75;5.75;;;14.80;99.90;;;;;;5003996;28;20057;-66
2021/08/18 04:43:05;;;;;;;13.02;7.97;;;14.80;99.90;;;;;;5011219;28;20495;-66
2021/08/18 04:45:30;;;;;;;14.10;8.32;;;14.80;99.90;;;;;;5012609;28;20075;-66
2021/08/18 04:47:56;;;;;;;15.02;9.18;;;14.90;99.90;;;;;;5011528;28;20030;-66
2021/08/18 04:50:21;;;;;;;16.45;9.10;;;14.90;99.90;;;;;;5004791;28;20377;-66
2021/08/18 04:52:47;;;;;;;15.90;10.07;;;14.90;99.90;;;;;;5009957;28;20045;-66
2021/08/18 04:55:15;;;;;;;14.25;9.55;;;15.00;99.90;;;;;;5010957;28;20026;-66
2021/08/18 04:57:40;;;;;;;19.05;11.00;;;15.00;99.90;;;;;;5012044;28;20465;-66
2021/08/18 05:00:07;;;;;;;14.55;9.85;;;15.00;99.90;;;;;;5008934;28;20036;-66
2021/08/18 05:02:36;;;;;;;17.67;11.63;;;15.10;99.90;;;;;;5008155;28;20041;-66
2021/08/18 05:05:03;;;;;;;14.68;10.32;;;15.10;99.90;;;;;;4998307;28;20037;-66
2021/08/18 05:07:29;;;;;;;15.40;10.60;;;15.20;99.90;;;;;;5004374;28;20077;-66
2021/08/18 05:09:55;;;;;;;17.73;10.73;;;15.20;99.90;;;;;;5007378;28;20146;-66
2021/08/18 05:12:20;;;;;;;15.00;9.95;;;15.20;99.90;;;;;;5007851;28;20037;-66
2021/08/18 05:14:46;;;;;;;18.65;10.65;;;15.30;99.90;;;;;;5010462;28;20096;-66
2021/08/18 05:17:11;;;;;;;17.85;10.55;;;15.30;99.90;;;;;;5007861;28;20507;-65
2021/08/18 05:19:37;;;;;;;21.63;10.88;;;15.30;99.90;;;;;;5007656;28;20041;-66
2021/08/18 05:22:03;;;;;;;17.90;10.43;;;15.40;99.90;;;;;;5008874;28;20057;-66
2021/08/18 05:24:28;;;;;;;17.10;9.57;;;15.40;99.90;;;;;;5002606;28;20030;-66
2021/08/18 05:26:54;;;;;;;19.50;9.98;;;15.50;99.90;;;;;;5003440;28;20026;-66
2021/08/18 05:29:19;;;;;;;14.85;10.02;;;15.50;99.90;;;;;;5001874;28;20036;-66
2021/08/18 05:31:45;;;;;;;17.10;9.80;;;15.50;99.90;;;;;;5008999;28;20034;-66
2021/08/18 05:34:10;;;;;;;11.93;8.50;;;15.60;99.90;;;;;;5003230;28;20041;-66
2021/08/18 05:36:36;;;;;;;14.68;9.60;;;15.60;99.90;;;;;;5009701;28;20034;-66
2021/08/18 05:39:01;;;;;;;18.70;9.48;;;15.70;99.90;;;;;;5004571;28;20410;-66
2021/08/18 05:41:27;;;;;;;14.27;9.63;;;15.60;99.90;;;;;;5002444;28;20026;-66
2021/08/18 05:43:52;;;;;;;13.85;9.02;;;15.70;99.90;;;;;;4999078;28;20034;-66
2021/08/18 05:46:18;;;;;;;13.63;9.48;;;15.70;99.90;;;;;;4995405;28;20026;-66
2021/08/18 05:48:43;;;;;;;16.15;10.00;;;15.80;99.90;;;;;;4996413;28;20040;-66
2021/08/18 05:51:09;;;;;;;15.02;9.63;;;15.80;99.90;;;;;;5010840;28;20083;-66
2021/08/18 05:53:37;;;;;;;16.80;10.38;;;15.90;99.90;;;;;;5012512;28;20030;-66
2021/08/18 05:56:02;;;;;;;17.30;10.88;;;15.90;99.90;;;;;;5011881;28;20377;-66
2021/08/18 05:58:28;;;;;;;16.52;11.50;;;15.90;99.90;;;;;;5004800;28;20026;-66
2021/08/18 06:00:54;;;;;;;18.95;13.70;;;16.00;99.90;;;;;;4997577;28;20108;-66
2021/08/18 06:03:19;;;;;;;20.48;13.07;;;16.00;99.90;;;;;;5002698;28;20026;-66
2021/08/18 06:05:45;;;;;;;19.63;13.20;;;16.00;99.90;;;;;;5008202;28;20160;-67
2021/08/18 06:08:10;;;;;;;16.85;12.45;;;16.10;99.90;;;;;;5018065;28;20105;-66
2021/08/18 06:10:36;;;;;;;17.90;13.38;;;16.10;99.90;;;;;;5009585;28;20041;-66
2021/08/18 06:13:01;;;;;;;20.38;13.07;;;16.10;99.90;;;;;;5009876;28;20026;-66
2021/08/18 06:15:31;;;;;;;21.63;13.48;;;16.20;99.90;;;;;;5005922;28;20045;-67
2021/08/18 06:17:56;;;;;;;18.33;11.95;;;16.20;99.90;;;;;;5009181;28;20556;-67
2021/08/18 06:20:22;;;;;;;20.90;12.57;;;16.30;99.90;;;;;;5008366;28;20153;-67
2021/08/18 06:22:49;;;;;;;18.52;11.45;;;16.30;99.90;;;;;;5006873;28;20029;-66
2021/08/18 06:25:15;;;;;;;16.67;10.77;;;16.40;99.90;;;;;;5011283;28;20030;-67
2021/08/18 06:27:41;;;;;;;17.00;11.23;;;16.40;99.90;;;;;;5000784;28;20042;-66
2021/08/18 06:30:09;;;;;;;17.23;11.00;;;16.40;99.90;;;;;;5006808;28;20036;-66
2021/08/18 06:32:35;;;;;;;15.55;10.00;;;16.40;99.90;;;;;;5006833;28;20096;-66
2021/08/18 06:35:01;;;;;;;20.60;11.15;;;16.40;99.90;;;;;;5008064;28;20434;-67
2021/08/18 06:37:26;;;;;;;18.40;10.18;;;16.40;99.90;;;;;;4998308;28;20049;-66
2021/08/18 06:39:53;;;;;;;17.55;10.80;;;16.40;99.90;;;;;;5006947;28;20065;-66
2021/08/18 06:42:19;;;;;;;14.20;9.40;;;16.40;99.90;;;;;;4996275;28;20006;-66
2021/08/18 06:44:48;;;;;;;19.08;10.63;;;16.40;99.90;;;;;;5005273;28;20033;-67
2021/08/18 06:47:14;;;;;;;15.23;10.90;;;16.40;99.90;;;;;;5002402;28;20466;-66
2021/08/18 06:49:39;;;;;;;20.20;11.10;;;16.40;99.90;;;;;;5011379;28;20050;-66
2021/08/18 06:52:05;;;;;;;19.17;11.82;;;16.40;99.90;;;;;;5008330;28;20409;-66
2021/08/18 06:54:30;;;;;;;20.17;11.32;;;16.40;99.90;;;;;;5005595;28;20480;-66
2021/08/18 06:56:57;;;;;;;17.48;11.85;;;16.50;99.90;;;;;;5007349;28;20370;-66
2021/08/18 06:59:23;;;;;;;18.30;11.73;;;16.40;99.90;;;;;;5004626;28;20018;-66
2021/08/18 07:01:48;;;;;;;17.65;11.45;;;16.40;99.90;;;;;;5004366;28;20068;-66
2021/08/18 07:04:14;;;;;;;17.73;12.60;;;16.40;99.90;;;;;;5001481;28;20021;-66
2021/08/18 07:06:40;;;;;;;23.50;12.00;;;16.40;99.90;;;;;;5005930;28;20101;-66
2021/08/18 07:09:05;;;;;;;15.05;10.70;;;16.50;99.90;;;;;;5005560;28;20476;-66
2021/08/18 07:11:31;;;;;;;15.93;9.85;;;16.50;99.90;;;;;;5009007;28;20773;-66
2021/08/18 07:13:59;;;;;;;13.25;8.93;;;16.60;99.90;;;;;;5001174;28;20054;-66
2021/08/18 07:16:26;;;;;;;14.13;10.55;;;16.70;99.90;;;;;;4996772;28;20029;-66
2021/08/18 07:18:52;;;;;;;15.45;10.75;;;16.70;99.90;;;;;;5001097;28;20045;-66
2021/08/18 07:21:20;;;;;;;19.70;11.13;;;16.80;99.90;;;;;;5008798;28;20010;-66
2021/08/18 07:23:47;;;;;;;14.50;10.38;;;16.90;99.90;;;;;;4999711;28;20072;-66
2021/08/18 07:26:12;;;;;;;15.48;10.98;;;17.00;99.90;;;;;;4992170;28;20034;-66
2021/08/18 07:28:37;;;;;;;17.85;11.55;;;17.20;99.90;;;;;;5020990;28;20041;-66
2021/08/18 07:31:03;;;;;;;16.45;10.63;;;17.30;99.90;;;;;;5007669;28;20037;-66
2021/08/18 07:33:28;;;;;;;15.10;10.98;;;17.40;99.90;;;;;;5021170;28;20033;-66
2021/08/18 07:35:54;;;;;;;14.85;11.27;;;17.50;99.90;;;;;;5000934;28;20026;-66
2021/08/18 07:38:19;;;;;;;14.02;10.43;;;17.60;99.90;;;;;;4998685;28;20022;-66
2021/08/18 07:40:46;;;;;;;12.93;9.70;;;17.70;99.90;;;;;;5003508;28;20022;-66
2021/08/18 07:43:13;;;;;;;15.27;10.75;;;17.70;99.90;;;;;;5009959;28;20029;-64
2021/08/18 07:45:38;;;;;;;13.93;10.23;;;17.80;99.90;;;;;;5003218;28;20031;-63
2021/08/18 07:48:04;;;;;;;13.80;10.40;;;17.80;99.90;;;;;;4991449;28;20036;-65
2021/08/18 07:50:30;;;;;;;14.25;10.15;;;17.80;99.90;;;;;;5009327;28;20060;-65
2021/08/18 07:52:56;;;;;;;14.40;8.90;;;17.80;99.90;;;;;;5010761;28;20053;-65
2021/08/18 07:55:21;;;;;;;15.55;11.20;;;17.90;99.90;;;;;;5004305;28;20068;-65
2021/08/18 07:57:46;;;;;;;15.77;11.70;;;17.90;99.90;;;;;;5009663;28;20030;-65
2021/08/18 08:00:13;;;;;;;15.68;12.18;;;18.00;99.90;;;;;;5008556;28;20033;-65
2021/08/18 08:02:44;;;;;;;16.25;11.00;;;18.00;99.90;;;;;;5006210;28;20041;-65
2021/08/18 08:05:10;;;;;;;11.90;10.60;;;18.10;99.90;;;;;;5003661;28;20068;-65
2021/08/18 08:07:36;;;;;;;15.07;11.05;;;18.10;99.90;;;;;;5013232;28;20033;-66
2021/08/18 08:10:01;;;;;;;13.82;10.30;;;18.10;99.90;;;;;;4998864;28;20037;-66
2021/08/18 08:12:27;;;;;;;13.68;9.73;;;18.10;99.90;;;;;;5011275;28;20026;-65
2021/08/18 08:14:52;;;;;;;12.88;9.43;;;18.10;99.90;;;;;;5004684;28;20046;-66
2021/08/18 08:17:18;;;;;;;11.18;9.13;;;18.10;99.90;;;;;;5013802;28;20498;-65
2021/08/18 08:19:43;;;;;;;15.32;9.18;;;18.10;99.90;;;;;;4999890;28;20014;-66
2021/08/18 08:22:09;;;;;;;14.63;9.80;;;18.20;99.90;;;;;;5008838;28;20033;-66
2021/08/18 08:24:34;;;;;;;12.52;9.93;;;18.20;99.90;;;;;;5009147;28;20037;-66
2021/08/18 08:27:00;;;;;;;12.85;10.13;;;18.30;99.90;;;;;;5005872;28;20030;-66
2021/08/18 08:29:26;;;;;;;13.05;10.20;;;18.40;99.90;;;;;;5016028;28;20061;-66
2021/08/18 08:31:55;;;;;;;12.75;11.05;;;18.40;99.90;;;;;;5013205;28;20399;-67
2021/08/18 08:34:22;;;;;;;13.23;11.45;;;18.40;99.90;;;;;;5009623;28;20038;-66
2021/08/18 08:37:23;;;;;;;;;;;;;;;;;;;;;
2021/08/18 08:39:50;;;;;;;19.23;14.82;;;18.40;99.90;;;;;;5011634;28;20044;-66
2021/08/18 08:42:16;;;;;;;20.55;15.35;;;18.40;99.90;;;;;;5012215;28;20113;-65
2021/08/18 08:44:42;;;;;;;20.20;14.80;;;18.40;99.90;;;;;;5014506;28;20030;-66
2021/08/18 08:47:08;;;;;;;18.42;15.75;;;18.40;99.90;;;;;;5001750;28;20034;-66
2021/08/18 08:49:35;;;;;;;20.98;15.80;;;18.40;99.90;;;;;;5009012;28;20042;-66
2021/08/18 08:52:01;;;;;;;21.08;17.48;;;18.40;99.90;;;;;;5003399;28;20034;-67
2021/08/18 08:54:26;;;;;;;18.67;15.23;;;18.40;99.90;;;;;;4994505;28;20022;-66
2021/08/18 08:56:52;;;;;;;20.83;15.93;;;18.40;99.90;;;;;;5006652;28;20037;-66
2021/08/18 08:59:18;;;;;;;17.00;15.30;;;18.40;99.90;;;;;;5007194;28;20037;-67
2021/08/18 09:02:00;;;;;;;18.60;15.82;;;18.50;99.90;;;;;;5006376;28;20034;-68
2021/08/18 09:04:31;;;;;;;15.43;13.77;;;18.50;99.90;;;;;;4994357;28;20445;-68
2021/08/18 09:07:23;;;;;;;15.88;14.18;;;18.60;99.90;;;;;;5008945;28;20053;-67
2021/08/18 09:09:57;;;;;;;15.40;12.90;;;18.70;99.90;;;;;;5005628;28;20073;-67
2021/08/18 09:12:31;;;;;;;16.50;13.35;;;18.80;99.90;;;;;;5002262;28;20463;-67
2021/08/18 09:14:56;;;;;;;14.73;12.68;;;18.80;99.90;;;;;;4995312;28;20129;-68
2021/08/18 09:17:28;;;;;;;14.90;12.52;;;18.80;99.90;;;;;;5001476;28;20130;-67
2021/08/18 09:19:59;;;;;;;;;;;18.80;99.90;;;;;;4995025;28;20026;-67
2021/08/18 09:22:24;;;;;;;15.07;12.43;;;18.90;99.90;;;;;;5004212;28;20356;-66
2021/08/18 09:25:08;;;;;;;14.15;12.30;;;18.90;99.90;;;;;;5007090;28;20034;-66
2021/08/18 09:27:34;;;;;;;14.68;13.00;;;19.00;99.90;;;;;;5008866;28;20033;-66
2021/08/18 09:30:00;;;;;;;17.45;12.68;;;19.10;99.90;;;;;;5012248;28;20026;-67
2021/08/18 09:32:32;;;;;;;15.57;12.68;;;19.10;99.90;;;;;;5006685;28;20037;-68
2021/08/18 09:35:08;;;;;;;12.77;11.57;;;19.20;99.90;;;;;;5012541;28;20392;-67
2021/08/18 09:37:36;;;;;;;15.80;11.80;;;19.40;99.90;;;;;;5007786;28;20057;-68
2021/08/18 09:40:23;;;;;;;14.63;11.35;;;19.60;99.90;;;;;;5004967;28;20054;-68
2021/08/18 09:42:50;;;;;;;13.32;10.52;;;19.80;99.90;;;;;;5000849;28;20045;-67
2021/08/18 09:45:23;;;;;;;12.25;10.95;;;19.80;99.90;;;;;;4993719;28;20066;-67
2021/08/18 09:48:06;;;;;;;15.38;11.77;;;19.90;99.80;;;;;;4998167;28;20109;-68
2021/08/18 09:50:40;;;;;;;11.70;10.50;;;19.90;99.30;;;;;;5021498;28;20128;-68
2021/08/18 09:53:14;;;;;;;10.88;9.60;;;20.00;99.40;;;;;;5005991;28;20087;-68
2021/08/18 09:55:51;;;;;;;10.77;9.68;;;20.20;99.20;;;;;;5012540;28;20092;-67
2021/08/18 09:58:22;;;;;;;12.02;8.55;;;20.30;99.00;;;;;;5012563;28;20030;-68
2021/08/18 10:00:48;;;;;;;9.33;8.40;;;20.40;98.60;;;;;;5012511;28;20106;-68
2021/08/18 10:03:14;;;;;;;10.25;8.60;;;20.50;98.20;;;;;;5011385;28;20096;-67
2021/08/18 10:05:40;;;;;;;9.77;8.70;;;20.60;97.80;;;;;;5012431;28;20034;-68
2021/08/18 10:08:08;;;;;;;9.55;8.65;;;20.70;97.30;;;;;;5006682;28;20030;-68
2021/08/18 10:10:34;;;;;;;8.93;8.02;;;20.70;97.00;;;;;;4994195;28;20037;-67
2021/08/18 10:13:00;;;;;;;10.13;8.50;;;20.70;96.60;;;;;;5005620;28;20026;-68
2021/08/18 10:15:25;;;;;;;8.20;7.05;;;20.60;96.00;;;;;;5001098;28;20045;-67
2021/08/18 10:17:51;;;;;;;8.60;7.20;;;20.50;95.80;;;;;;5008186;28;20377;-67
2021/08/18 10:20:22;;;;;;;10.23;6.85;;;20.20;95.90;;;;;;5003352;28;20030;-68
2021/08/18 10:22:59;;;;;;;8.10;6.47;;;20.00;96.10;;;;;;5000558;28;20059;-67
2021/08/18 10:25:51;;;;;;;6.72;6.00;;;19.80;96.60;;;;;;5008026;28;20092;-68
2021/08/18 10:28:17;;;;;;;5.83;4.47;;;19.80;96.70;;;;;;5009737;28;20192;-67
2021/08/18 10:30:47;;;;;;;6.07;4.10;;;19.70;96.30;;;;;;5011532;28;20112;-67
2021/08/18 10:33:50;;;;;;;5.25;4.38;;;19.60;96.20;;;;;;4996835;28;20105;-67
2021/08/18 10:36:41;;;;;;;5.50;4.88;;;19.70;96.60;;;;;;4997914;28;20030;-67
2021/08/18 10:39:22;;;;;;;7.82;5.97;;;19.90;96.70;;;;;;5001663;28;20076;-67
2021/08/18 10:41:59;;;;;;;7.20;6.50;;;20.00;96.60;;;;;;5009541;28;20030;-67
2021/08/18 10:44:52;;;;;;;4.20;3.72;;;20.10;96.70;;;;;;5003264;28;20030;-67
2021/08/18 10:47:33;;;;;;;4.38;3.30;;;20.10;96.10;;;;;;4993041;28;20065;-66
2021/08/18 10:50:13;;;;;;;3.20;2.90;;;20.10;96.10;;;;;;5003038;28;20081;-67
2021/08/18 10:52:41;;;;;;;4.97;3.40;;;20.10;95.90;;;;;;5007805;28;20029;-67
2021/08/18 10:55:25;;;;;;;4.93;4.07;;;20.10;95.80;;;;;;5002951;28;20034;-68
2021/08/18 10:57:55;;;;;;;4.05;3.63;;;20.20;95.70;;;;;;5005862;28;20546;-68
2021/08/18 11:00:32;;;;;;;3.20;2.70;;;20.40;95.90;;;;;;5009746;28;20057;-68
2021/08/18 11:03:01;;;;;;;2.50;2.30;;;20.60;95.30;;;;;;4996854;28;20520;-67
2021/08/18 11:05:30;;;;;;;1.98;1.48;;;20.70;95.40;;;;;;5011038;28;20416;-67
2021/08/18 11:08:25;;;;;;;2.58;1.80;;;20.90;95.20;;;;;;5009422;28;20492;-67
2021/08/18 11:10:50;;;;;;;2.92;2.20;;;21.10;94.90;;;;;;5002208;28;20038;-67
2021/08/18 11:13:17;;;;;;;3.58;2.40;;;21.20;94.30;;;;;;4992110;28;20026;-67
2021/08/18 11:15:43;;;;;;;3.03;2.60;;;21.30;94.10;;;;;;5005085;28;20034;-67
2021/08/18 11:18:09;;;;;;;3.13;2.35;;;21.40;94.20;;;;;;4992629;28;20033;-67
2021/08/18 11:20:36;;;;;;;2.90;2.45;;;21.40;93.70;;;;;;5007423;28;20034;-67
2021/08/18 11:23:08;;;;;;;6.53;3.80;;;21.30;93.30;;;;;;5009695;28;20032;-67
2021/08/18 11:25:45;;;;;;;6.65;5.35;;;21.20;93.40;;;;;;5010767;28;20549;-64
2021/08/18 11:28:21;;;;;;;7.55;6.75;;;21.00;93.20;;;;;;4999622;28;20030;-65
2021/08/18 11:31:05;;;;;;;7.30;6.60;;;20.70;93.60;;;;;;5000553;28;20050;-64
2021/08/18 11:33:32;;;;;;;11.32;7.80;;;20.50;94.00;;;;;;4956040;28;20080;-66
2021/08/18 11:36:00;;;;;;;7.75;6.93;;;20.20;94.50;;;;;;4954497;28;21483;-65
2021/08/18 11:38:27;;;;;;;9.88;7.18;;;20.10;94.80;;;;;;4952211;28;20084;-66
2021/08/18 11:40:54;;;;;;;10.20;8.07;;;20.00;95.00;;;;;;4954744;28;20033;-66
2021/08/18 11:43:41;;;;;;;9.20;7.93;;;20.00;95.20;;;;;;4972076;28;20452;-67
2021/08/18 11:46:07;;;;;;;10.27;8.27;;;19.90;95.40;;;;;;5009515;28;20026;-66
2021/08/18 11:48:33;;;;;;;9.07;8.23;;;19.80;95.70;;;;;;5013431;28;20195;-66
2021/08/18 11:51:00;;;;;;;10.93;9.40;;;19.80;96.10;;;;;;5015472;28;20029;-66
2021/08/18 11:53:26;;;;;;;11.15;10.02;;;19.80;96.00;;;;;;5000683;28;20369;-67
2021/08/18 11:56:04;;;;;;;9.57;8.40;;;19.80;96.00;;;;;;5011873;28;20034;-66
2021/08/18 11:58:33;;;;;;;14.15;9.07;;;19.70;96.20;;;;;;5009443;28;20492;-66
2021/08/18 12:01:07;;;;;;;13.95;10.80;;;19.70;96.30;;;;;;5003826;28;20080;-67
2021/08/18 12:03:33;;;;;;;10.13;9.15;;;19.70;96.40;;;;;;5005728;28;20516;-67
2021/08/18 12:06:06;;;;;;;11.88;8.27;;;19.70;96.50;;;;;;5003196;28;20041;-65
2021/08/18 12:08:37;;;;;;;12.38;8.55;;;19.80;96.40;;;;;;5010270;28;20034;-66
2021/08/18 12:11:04;;;;;;;11.48;7.93;;;19.90;96.10;;;;;;4995700;28;20023;-67
2021/08/18 12:13:48;;;;;;;8.40;7.45;;;20.00;96.40;;;;;;5004571;28;20034;-67
2021/08/18 12:16:23;;;;;;;11.25;7.30;;;20.10;95.90;;;;;;4996723;28;20041;-66
2021/08/18 12:18:51;;;;;;;11.25;7.22;;;20.10;95.70;;;;;;5014567;28;20076;-68
2021/08/18 12:21:25;;;;;;;8.88;6.15;;;20.10;95.60;;;;;;4997389;28;20533;-68
2021/08/18 12:23:57;;;;;;;9.15;6.90;;;20.10;95.50;;;;;;5012127;28;20030;-66
2021/08/18 12:26:26;;;;;;;7.25;6.30;;;20.20;95.50;;;;;;5013245;28;20460;-66
2021/08/18 12:28:55;;;;;;;9.93;7.25;;;20.20;95.30;;;;;;5009812;28;20057;-66
2021/08/18 12:31:21;;;;;;;10.55;6.95;;;20.30;95.30;;;;;;4997278;28;20030;-65
2021/08/18 12:34:07;;;;;;;9.70;6.65;;;20.40;95.30;;;;;;5007012;28;20022;-67
2021/08/18 12:36:34;;;;;;;9.88;6.25;;;20.50;95.10;;;;;;5010784;28;20033;-65
2021/08/18 12:39:00;;;;;;;8.00;5.93;;;20.60;94.90;;;;;;5002444;28;20034;-67